Time;durP1;ratioP1;P1;durP2;ratioP2;P2;SDS_P1;SDS_P2;PMS_P1;PMS_P2;Temp;Humidity;BMP_temperature;BMP_pressure;BME280_temperature;BME280_humidity;BME280_pressure;Samples;Min_cycle;Max_cycle;Signal;HPM_P1;HPM_P2
2022/12/04 00:01:20;;;;;;;30.38;16.55;;;;;;;;;;5027044;28;20057;-68
2022/12/04 00:03:46;;;;;;;30.50;16.95;;;;;;;;;;4995669;28;20769;-69
2022/12/04 00:06:18;;;;;;;28.05;15.55;;;;;;;;;;5012275;28;20456;-68
2022/12/04 00:08:45;;;;;;;31.17;17.20;;;;;;;;;;4978921;28;20050;-68
2022/12/04 00:11:14;;;;;;;32.65;17.70;;;;;;;;;;5026744;28;20049;-69
2022/12/04 00:13:41;;;;;;;29.48;16.58;;;;;;;;;;5019875;28;20053;-68
2022/12/04 00:16:10;;;;;;;31.50;17.33;;;;;;;;;;5027634;28;20127;-69
2022/12/04 00:18:37;;;;;;;32.75;17.98;;;;;;;;;;5016741;28;20052;-68
2022/12/04 00:21:08;;;;;;;31.33;16.77;;;;;;;;;;5013401;28;20041;-69
2022/12/04 00:23:35;;;;;;;34.08;18.23;;;;;;;;;;5015405;28;20046;-68
2022/12/04 00:26:08;;;;;;;31.42;16.80;;;;;;;;;;5010317;28;20053;-69
2022/12/04 00:28:35;;;;;;;30.03;16.43;;;;;;;;;;5018600;28;20084;-69
2022/12/04 00:31:19;;;;;;;30.17;16.35;;;;;;;;;;5035295;28;20288;-66
2022/12/04 00:33:46;;;;;;;27.92;15.88;;;;;;;;;;5031615;28;20049;-68
2022/12/04 00:36:15;;;;;;;28.95;16.17;;;;;;;;;;5018012;28;20049;-69
2022/12/04 00:38:43;;;;;;;29.45;15.77;;;;;;;;;;5017559;28;20081;-68
2022/12/04 00:41:11;;;;;;;31.70;15.77;;;;;;;;;;5035282;28;20053;-68
2022/12/04 00:43:38;;;;;;;30.50;16.30;;;;;;;;;;5034272;28;20128;-69
2022/12/04 00:46:05;;;;;;;29.58;15.90;;;;;;;;;;5018414;28;20049;-69
2022/12/04 00:48:31;;;;;;;31.10;15.70;;;;;;;;;;5027161;28;20061;-68
2022/12/04 00:51:06;;;;;;;33.08;16.73;;;;;;;;;;5035319;28;20133;-68
2022/12/04 00:53:32;;;;;;;30.63;16.42;;;;;;;;;;5014714;28;20100;-69
2022/12/04 00:56:03;;;;;;;27.83;15.98;;;;;;;;;;5014198;28;20602;-69
2022/12/04 00:58:30;;;;;;;28.20;15.40;;;;;;;;;;5017762;28;20053;-68
2022/12/04 01:01:07;;;;;;;30.13;16.08;;;;;;;;;;5015233;28;20050;-69
2022/12/04 01:03:34;;;;;;;32.00;15.85;;;;;;;;;;4982729;28;20081;-69
2022/12/04 01:06:02;;;;;;;31.90;16.40;;;;;;;;;;5027532;28;20053;-69
2022/12/04 01:08:29;;;;;;;33.50;18.05;;;;;;;;;;5035029;28;20057;-69
2022/12/04 01:10:55;;;;;;;31.27;16.38;;;;;;;;;;5034816;28;20050;-67
2022/12/04 01:13:22;;;;;;;30.95;16.90;;;;;;;;;;5034634;28;20479;-69
2022/12/04 01:15:49;;;;;;;32.13;15.88;;;;;;;;;;5033561;28;20053;-68
2022/12/04 01:18:16;;;;;;;27.35;15.68;;;;;;;;;;5018580;28;20111;-68
2022/12/04 01:20:48;;;;;;;30.13;16.35;;;;;;;;;;5030116;28;20505;-69
2022/12/04 01:23:16;;;;;;;29.77;16.60;;;;;;;;;;5013972;28;20046;-69
2022/12/04 01:25:50;;;;;;;32.95;17.75;;;;;;;;;;5025557;28;20049;-68
2022/12/04 01:28:17;;;;;;;29.63;16.80;;;;;;;;;;5008461;28;20535;-69
2022/12/04 01:30:44;;;;;;;30.70;16.20;;;;;;;;;;5017018;28;20085;-69
2022/12/04 01:33:11;;;;;;;31.05;17.13;;;;;;;;;;5010617;28;20042;-68
2022/12/04 01:35:38;;;;;;;32.55;17.13;;;;;;;;;;4981272;28;20132;-69
2022/12/04 01:38:05;;;;;;;26.23;15.40;;;;;;;;;;5013727;28;20092;-68
2022/12/04 01:40:31;;;;;;;31.15;16.70;;;;;;;;;;5022414;28;20463;-69
2022/12/04 01:42:58;;;;;;;28.52;15.40;;;;;;;;;;5013752;28;20054;-69
2022/12/04 01:45:41;;;;;;;28.55;16.33;;;;;;;;;;5024232;28;20424;-69
2022/12/04 01:48:20;;;;;;;26.38;15.88;;;;;;;;;;5034400;28;20137;-69
2022/12/04 01:50:48;;;;;;;33.55;17.02;;;;;;;;;;5013305;28;20056;-68
2022/12/04 01:53:15;;;;;;;28.55;16.77;;;;;;;;;;4996837;28;20557;-68
2022/12/04 01:55:41;;;;;;;32.25;17.23;;;;;;;;;;5024400;28;20087;-68
2022/12/04 01:58:08;;;;;;;29.02;14.98;;;;;;;;;;4999737;28;20053;-69
2022/12/04 02:00:35;;;;;;;30.08;16.38;;;;;;;;;;5016100;28;20120;-68
2022/12/04 02:03:02;;;;;;;31.50;16.20;;;;;;;;;;4996805;28;20046;-69
2022/12/04 02:05:28;;;;;;;29.17;15.88;;;;;;;;;;5014066;28;20136;-69
2022/12/04 02:07:58;;;;;;;26.38;14.73;;;;;;;;;;5015635;28;20136;-68
2022/12/04 02:10:34;;;;;;;30.70;16.25;;;;;;;;;;5016785;28;20054;-69
2022/12/04 02:13:17;;;;;;;32.55;17.80;;;;;;;;;;5017327;28;20136;-72
2022/12/04 02:15:47;;;;;;;;;;;;;;;;;;5035196;28;20550;-69
2022/12/04 02:18:34;;;;;;;31.02;17.35;;;;;;;;;;5035913;28;19944;-68
2022/12/04 02:21:17;;;;;;;31.83;16.58;;;;;;;;;;5019125;28;20053;-70
2022/12/04 02:23:53;;;;;;;32.38;16.80;;;;;;;;;;5017915;28;20053;-68
2022/12/04 02:26:40;;;;;;;32.75;18.27;;;;;;;;;;5034097;28;20067;-68
2022/12/04 02:29:15;;;;;;;31.80;17.42;;;;;;;;;;5032201;28;20099;-69
2022/12/04 02:32:18;;;;;;;28.50;16.67;;;;;;;;;;5007368;28;20054;-67
2022/12/04 02:34:48;;;;;;;31.45;17.67;;;;;;;;;;5008206;28;20559;-69
2022/12/04 02:37:21;;;;;;;28.95;16.52;;;;;;;;;;5013792;28;20050;-69
2022/12/04 02:39:52;;;;;;;31.50;18.13;;;;;;;;;;5012825;28;20061;-68
2022/12/04 02:42:44;;;;;;;30.75;18.45;;;;;;;;;;4964091;28;20050;-69
2022/12/04 02:45:12;;;;;;;30.65;17.98;;;;;;;;;;4975661;28;20055;-69
2022/12/04 02:47:40;;;;;;;32.10;18.85;;;;;;;;;;4959576;28;20081;-69
2022/12/04 02:50:12;;;;;;;31.33;17.38;;;;;;;;;;4987067;28;20053;-68
2022/12/04 02:52:43;;;;;;;30.30;17.88;;;;;;;;;;4962828;28;20054;-68
2022/12/04 02:55:18;;;;;;;34.20;19.73;;;;;;;;;;4960050;28;20484;-68
2022/12/04 02:57:48;;;;;;;32.17;18.83;;;;;;;;;;4959524;28;20050;-67
2022/12/04 03:00:15;;;;;;;32.22;18.48;;;;;;;;;;4982474;28;20088;-69
2022/12/04 03:02:47;;;;;;;32.22;18.08;;;;;;;;;;4997272;28;20073;-68
2022/12/04 03:05:18;;;;;;;34.00;18.02;;;;;;;;;;5012092;28;20092;-69
2022/12/04 03:07:49;;;;;;;29.30;18.67;;;;;;;;;;4995816;28;20053;-67
2022/12/04 03:10:46;;;;;;;32.33;18.95;;;;;;;;;;5012926;28;20049;-67
2022/12/04 03:13:52;;;;;;;32.20;17.85;;;;;;;;;;5014597;28;20084;-68
2022/12/04 03:16:28;;;;;;;31.08;17.13;;;;;;;;;;5016499;28;20120;-69
2022/12/04 03:19:15;;;;;;;29.02;17.73;;;;;;;;;;5013348;28;20041;-69
2022/12/04 03:21:53;;;;;;;32.70;19.25;;;;;;;;;;4998249;28;20049;-69
2022/12/04 03:24:32;;;;;;;29.50;18.13;;;;;;;;;;4996778;28;20049;-68
2022/12/04 03:27:06;;;;;;;28.95;17.55;;;;;;;;;;4996338;28;20049;-68
2022/12/04 03:29:40;;;;;;;32.65;18.88;;;;;;;;;;5012456;28;20088;-69
2022/12/04 03:32:30;;;;;;;32.00;18.48;;;;;;;;;;5029038;23;20493;-74
2022/12/04 03:34:58;;;;;;;30.38;18.52;;;;;;;;;;5009306;28;20132;-74
2022/12/04 03:37:44;;;;;;;28.55;19.02;;;;;;;;;;4994899;28;20092;-74
2022/12/04 03:40:25;;;;;;;32.33;19.05;;;;;;;;;;5011109;28;20539;-74
2022/12/04 03:43:13;;;;;;;31.13;18.33;;;;;;;;;;4991461;28;20553;-74
2022/12/04 03:45:57;;;;;;;28.27;17.23;;;;;;;;;;4991534;28;20046;-73
2022/12/04 03:48:27;;;;;;;28.08;16.02;;;;;;;;;;4992353;28;20129;-75
2022/12/04 03:51:07;;;;;;;28.55;17.38;;;;;;;;;;4974418;28;20520;-74
2022/12/04 03:53:44;;;;;;;28.45;17.42;;;;;;;;;;4971402;28;20131;-75
2022/12/04 03:56:15;;;;;;;29.35;17.50;;;;;;;;;;4971989;28;20408;-74
2022/12/04 03:58:49;;;;;;;28.65;17.63;;;;;;;;;;4972103;28;20105;-74
2022/12/04 04:01:18;;;;;;;31.27;18.05;;;;;;;;;;4971739;28;20106;-75
2022/12/04 04:03:54;;;;;;;31.88;19.70;;;;;;;;;;4972378;28;20083;-74
2022/12/04 04:06:26;;;;;;;33.63;19.48;;;;;;;;;;4972061;28;20054;-75
2022/12/04 04:08:54;;;;;;;30.42;18.60;;;;;;;;;;4980518;28;20504;-75
2022/12/04 04:11:36;;;;;;;32.53;18.58;;;;;;;;;;5004400;28;20042;-75
2022/12/04 04:25:23;;;;;;;26.90;16.73;;;;;;;;;;4985775;28;20047;-75
2022/12/04 04:27:51;;;;;;;28.70;17.67;;;;;;;;;;4991073;28;20062;-75
2022/12/04 04:30:18;;;;;;;31.20;19.10;;;;;;;;;;4990974;28;20457;-76
2022/12/04 04:33:05;;;;;;;31.85;18.48;;;;;;;;;;4990991;28;20643;-76
2022/12/04 04:35:35;;;;;;;32.08;19.30;;;;;;;;;;4990970;28;20046;-75
2022/12/04 04:38:16;;;;;;;30.17;18.45;;;;;;;;;;4991075;28;20050;-76
2022/12/04 04:40:49;;;;;;;28.80;17.35;;;;;;;;;;4991940;28;20050;-75
2022/12/04 04:43:35;;;;;;;31.95;19.20;;;;;;;;;;4990943;28;20054;-74
2022/12/04 04:46:22;;;;;;;27.65;17.55;;;;;;;;;;4992356;28;20046;-73
2022/12/04 04:48:53;;;;;;;27.35;16.65;;;;;;;;;;4991002;28;20082;-73
2022/12/04 04:51:20;;;;;;;26.33;17.48;;;;;;;;;;4974881;28;20429;-73
2022/12/04 04:53:49;;;;;;;26.85;17.15;;;;;;;;;;4976181;28;20053;-74
2022/12/04 04:56:15;;;;;;;28.00;17.70;;;;;;;;;;4993922;28;20050;-72
2022/12/04 04:58:42;;;;;;;26.42;16.35;;;;;;;;;;4975396;28;20124;-73
2022/12/04 05:01:18;;;;;;;24.77;14.80;;;;;;;;;;4990316;28;20054;-73
2022/12/04 05:03:45;;;;;;;26.50;16.10;;;;;;;;;;4976184;28;20061;-73
2022/12/04 05:06:12;;;;;;;26.63;15.45;;;;;;;;;;4995808;28;20054;-73
2022/12/04 05:08:38;;;;;;;25.08;16.17;;;;;;;;;;4998719;28;20061;-74
2022/12/04 05:11:05;;;;;;;25.30;15.93;;;;;;;;;;4998574;28;20054;-74
2022/12/04 05:13:32;;;;;;;28.25;17.13;;;;;;;;;;4997431;28;20051;-73
2022/12/04 05:16:01;;;;;;;26.58;17.00;;;;;;;;;;4996694;28;20084;-73
2022/12/04 05:18:29;;;;;;;28.63;16.75;;;;;;;;;;4995175;28;20047;-73
2022/12/04 05:21:02;;;;;;;27.13;16.38;;;;;;;;;;4999885;28;20050;-71
2022/12/04 05:23:32;;;;;;;26.60;16.27;;;;;;;;;;4995913;28;20058;-73
2022/12/04 05:26:03;;;;;;;28.17;17.42;;;;;;;;;;4995101;28;20047;-74
2022/12/04 05:28:30;;;;;;;25.35;15.73;;;;;;;;;;5010944;28;20467;-73
2022/12/04 05:31:00;;;;;;;26.98;17.10;;;;;;;;;;4995672;28;20496;-74
2022/12/04 05:33:28;;;;;;;28.40;17.80;;;;;;;;;;4994444;28;20050;-73
2022/12/04 05:36:06;;;;;;;27.65;16.98;;;;;;;;;;4996680;28;20077;-73
2022/12/04 05:38:33;;;;;;;28.92;17.27;;;;;;;;;;4996835;28;20055;-73
2022/12/04 05:41:01;;;;;;;26.75;17.02;;;;;;;;;;4995407;28;20050;-73
2022/12/04 05:43:27;;;;;;;29.10;16.85;;;;;;;;;;5010036;28;20098;-74
2022/12/04 05:45:54;;;;;;;26.60;16.23;;;;;;;;;;4993797;28;20046;-74
2022/12/04 05:48:21;;;;;;;27.60;17.25;;;;;;;;;;4993570;28;20062;-74
2022/12/04 05:50:47;;;;;;;27.23;16.33;;;;;;;;;;4994967;28;20177;-74
2022/12/04 05:53:14;;;;;;;24.48;15.30;;;;;;;;;;4994394;28;20054;-74
2022/12/04 05:55:40;;;;;;;26.85;16.40;;;;;;;;;;4994099;28;20085;-72
2022/12/04 05:58:07;;;;;;;25.73;14.88;;;;;;;;;;4994344;28;20046;-74
2022/12/04 06:00:34;;;;;;;26.77;16.27;;;;;;;;;;4994563;28;20046;-73
2022/12/04 06:03:01;;;;;;;28.40;16.13;;;;;;;;;;4995240;28;20104;-72
2022/12/04 06:05:27;;;;;;;26.10;16.15;;;;;;;;;;4994920;28;20086;-73
2022/12/04 06:07:54;;;;;;;28.02;16.83;;;;;;;;;;4994341;28;20050;-73
2022/12/04 06:10:21;;;;;;;26.30;15.90;;;;;;;;;;4994879;28;20468;-72
2022/12/04 06:12:47;;;;;;;28.42;16.38;;;;;;;;;;4994176;28;20046;-73
2022/12/04 06:15:14;;;;;;;25.77;16.40;;;;;;;;;;4994787;28;20051;-74
2022/12/04 06:17:41;;;;;;;27.42;15.38;;;;;;;;;;4994822;28;20503;-74
2022/12/04 06:20:08;;;;;;;28.50;16.90;;;;;;;;;;4994495;28;20054;-74
2022/12/04 06:22:37;;;;;;;25.33;14.95;;;;;;;;;;4993865;28;20065;-72
2022/12/04 06:25:04;;;;;;;26.92;15.30;;;;;;;;;;5009575;28;20057;-74
2022/12/04 06:27:31;;;;;;;28.48;16.48;;;;;;;;;;4994865;28;20058;-74
2022/12/04 06:29:57;;;;;;;26.35;16.00;;;;;;;;;;5009571;28;20046;-72
2022/12/04 06:32:24;;;;;;;27.60;15.73;;;;;;;;;;4993715;28;20050;-74
2022/12/04 06:34:52;;;;;;;25.95;16.77;;;;;;;;;;4992603;28;20046;-73
2022/12/04 06:37:20;;;;;;;28.25;15.55;;;;;;;;;;4997027;28;20046;-73
2022/12/04 06:39:47;;;;;;;27.80;16.08;;;;;;;;;;4994706;28;20047;-73
2022/12/04 06:42:14;;;;;;;30.30;17.35;;;;;;;;;;4994544;28;20508;-72
2022/12/04 06:44:40;;;;;;;27.63;15.60;;;;;;;;;;4993201;28;20047;-73
2022/12/04 06:47:07;;;;;;;25.42;14.68;;;;;;;;;;4994668;28;20054;-73
2022/12/04 06:49:35;;;;;;;28.48;16.55;;;;;;;;;;5008655;28;20057;-73
2022/12/04 06:52:02;;;;;;;25.67;15.48;;;;;;;;;;4993765;28;20108;-73
2022/12/04 06:54:28;;;;;;;27.73;15.45;;;;;;;;;;4992672;28;20488;-74
2022/12/04 06:56:55;;;;;;;27.20;17.27;;;;;;;;;;4993610;28;20505;-74
2022/12/04 06:59:22;;;;;;;27.15;16.02;;;;;;;;;;4992423;28;20054;-74
2022/12/04 07:01:49;;;;;;;29.95;16.92;;;;;;;;;;4993496;28;20059;-73
2022/12/04 07:04:16;;;;;;;28.48;16.85;;;;;;;;;;4992436;28;20501;-71
2022/12/04 07:06:42;;;;;;;29.17;16.83;;;;;;;;;;5008697;28;20065;-71
2022/12/04 07:09:12;;;;;;;28.33;16.95;;;;;;;;;;4993175;28;20081;-71
2022/12/04 07:11:40;;;;;;;27.48;16.55;;;;;;;;;;4993399;28;20571;-70
2022/12/04 07:14:06;;;;;;;31.55;16.98;;;;;;;;;;4993387;28;20058;-69
2022/12/04 07:16:33;;;;;;;27.40;16.33;;;;;;;;;;4993247;28;20046;-71
2022/12/04 07:19:07;;;;;;;30.48;17.67;;;;;;;;;;4993710;28;20121;-72
2022/12/04 07:21:33;;;;;;;27.30;16.10;;;;;;;;;;4992739;28;20046;-72
2022/12/04 07:24:00;;;;;;;27.02;15.85;;;;;;;;;;4993039;28;20235;-71
2022/12/04 07:26:28;;;;;;;25.55;15.50;;;;;;;;;;4989464;28;20331;-70
2022/12/04 07:28:56;;;;;;;29.02;17.25;;;;;;;;;;4991256;28;20464;-71
2022/12/04 07:31:24;;;;;;;33.97;17.48;;;;;;;;;;4990420;28;20050;-69
2022/12/04 07:33:52;;;;;;;29.63;17.48;;;;;;;;;;4991232;28;20054;-71
2022/12/04 07:36:20;;;;;;;29.58;16.88;;;;;;;;;;4990519;28;20046;-70
2022/12/04 07:38:47;;;;;;;32.75;18.58;;;;;;;;;;4990462;28;20256;-71
2022/12/04 07:41:13;;;;;;;32.78;17.52;;;;;;;;;;4990306;28;20050;-70
2022/12/04 07:43:40;;;;;;;31.63;17.50;;;;;;;;;;4990578;28;20462;-71
2022/12/04 07:46:17;;;;;;;27.88;17.42;;;;;;;;;;4990803;28;20053;-70
2022/12/04 07:48:45;;;;;;;29.13;17.30;;;;;;;;;;4990125;28;20428;-71
2022/12/04 07:51:13;;;;;;;28.45;17.15;;;;;;;;;;4990111;28;20072;-70
2022/12/04 07:53:40;;;;;;;31.50;17.65;;;;;;;;;;4990529;28;20058;-71
2022/12/04 07:56:07;;;;;;;30.30;17.20;;;;;;;;;;5005415;28;20371;-71
2022/12/04 07:58:34;;;;;;;29.35;17.48;;;;;;;;;;4990948;28;20505;-71
2022/12/04 08:01:11;;;;;;;28.65;17.00;;;;;;;;;;4990449;28;20512;-70
2022/12/04 08:03:42;;;;;;;29.83;17.88;;;;;;;;;;4990613;28;20050;-71
2022/12/04 08:06:14;;;;;;;26.85;16.77;;;;;;;;;;4988767;28;20125;-70
2022/12/04 08:08:40;;;;;;;31.77;17.40;;;;;;;;;;4990987;28;20596;-70
2022/12/04 08:11:09;;;;;;;31.48;18.20;;;;;;;;;;4989169;28;20058;-71
2022/12/04 08:13:36;;;;;;;30.52;17.42;;;;;;;;;;4990601;28;20062;-70
2022/12/04 08:16:04;;;;;;;28.30;17.17;;;;;;;;;;4990437;28;20051;-71
2022/12/04 08:18:31;;;;;;;26.95;16.70;;;;;;;;;;4989906;28;20054;-70
2022/12/04 08:21:09;;;;;;;27.52;16.35;;;;;;;;;;4990344;28;20054;-71
2022/12/04 08:23:36;;;;;;;33.25;17.67;;;;;;;;;;4990332;28;20109;-69
2022/12/04 08:26:03;;;;;;;26.90;16.33;;;;;;;;;;4990556;28;20101;-70
2022/12/04 08:28:31;;;;;;;28.02;16.00;;;;;;;;;;4990418;28;20046;-70
2022/12/04 08:31:24;;;;;;;25.58;16.52;;;;;;;;;;4989818;28;20061;-71
2022/12/04 08:33:53;;;;;;;27.13;17.10;;;;;;;;;;4988686;28;20142;-71
2022/12/04 08:36:20;;;;;;;28.83;17.58;;;;;;;;;;4990178;28;20551;-71
2022/12/04 08:38:47;;;;;;;29.38;17.33;;;;;;;;;;4991423;28;20046;-70
2022/12/04 08:41:16;;;;;;;31.27;18.60;;;;;;;;;;4994145;28;20054;-72
2022/12/04 08:43:43;;;;;;;28.50;16.50;;;;;;;;;;4994027;28;20466;-69
2022/12/04 08:46:11;;;;;;;26.83;16.58;;;;;;;;;;4994105;28;20069;-70
2022/12/04 08:48:38;;;;;;;29.20;16.48;;;;;;;;;;4993757;28;20058;-72
2022/12/04 08:51:07;;;;;;;28.15;16.88;;;;;;;;;;4993745;28;20054;-72
2022/12/04 08:53:35;;;;;;;26.77;16.55;;;;;;;;;;4993772;28;20436;-71
2022/12/04 08:56:02;;;;;;;25.88;15.73;;;;;;;;;;5008659;28;20409;-71
2022/12/04 08:58:29;;;;;;;24.55;15.50;;;;;;;;;;4993038;28;20105;-71
2022/12/04 09:01:01;;;;;;;25.17;15.48;;;;;;;;;;4993201;28;20570;-70
2022/12/04 09:03:28;;;;;;;28.98;16.30;;;;;;;;;;4992465;28;20062;-70
2022/12/04 09:06:00;;;;;;;28.67;16.80;;;;;;;;;;4993611;28;20497;-71
2022/12/04 09:08:27;;;;;;;25.08;14.98;;;;;;;;;;4993733;28;20050;-71
2022/12/04 09:10:54;;;;;;;24.67;15.15;;;;;;;;;;4992754;28;20497;-71
2022/12/04 09:13:20;;;;;;;25.60;15.20;;;;;;;;;;4993333;28;20113;-70
2022/12/04 09:15:47;;;;;;;25.45;14.88;;;;;;;;;;4994343;28;20409;-70
2022/12/04 09:18:14;;;;;;;25.83;15.88;;;;;;;;;;4993756;28;20054;-69
2022/12/04 09:20:40;;;;;;;26.77;15.57;;;;;;;;;;4984661;28;20050;-70
2022/12/04 09:23:08;;;;;;;28.20;15.40;;;;;;;;;;4991466;28;20054;-70
2022/12/04 09:25:36;;;;;;;28.50;16.67;;;;;;;;;;4990756;28;20413;-70
2022/12/04 09:28:03;;;;;;;27.15;15.38;;;;;;;;;;4986230;28;20598;-71
2022/12/04 09:30:30;;;;;;;27.70;15.73;;;;;;;;;;4990143;28;20121;-70
2022/12/04 09:32:56;;;;;;;29.65;16.98;;;;;;;;;;4991762;28;20066;-70
2022/12/04 09:35:23;;;;;;;25.45;15.75;;;;;;;;;;4990566;28;20054;-70
2022/12/04 09:37:50;;;;;;;25.40;14.93;;;;;;;;;;5006426;28;20046;-69
2022/12/04 09:40:49;;;;;;;25.98;14.85;;;;;;;;;;4992089;28;20108;-69
2022/12/04 09:43:24;;;;;;;25.60;15.45;;;;;;;;;;4989021;28;20444;-69
2022/12/04 09:45:54;;;;;;;24.90;16.00;;;;;;;;;;4992711;28;20057;-70
2022/12/04 09:48:21;;;;;;;26.50;15.23;;;;;;;;;;4982519;28;20073;-71
2022/12/04 09:50:48;;;;;;;23.00;13.75;;;;;;;;;;4991154;28;20110;-73
2022/12/04 09:53:20;;;;;;;26.73;14.55;;;;;;;;;;4992719;28;20042;-73
2022/12/04 09:55:54;;;;;;;25.13;14.45;;;;;;;;;;4989465;28;20051;-74
2022/12/04 09:58:40;;;;;;;25.67;14.77;;;;;;;;;;5007930;28;20517;-73
2022/12/04 10:01:17;;;;;;;24.85;14.00;;;;;;;;;;4994807;28;20054;-73
2022/12/04 10:03:44;;;;;;;23.30;13.02;;;;;;;;;;4993775;28;20050;-76
2022/12/04 10:06:13;;;;;;;24.08;14.05;;;;;;;;;;4994091;28;20050;-74
2022/12/04 10:08:41;;;;;;;22.30;12.52;;;;;;;;;;4988244;28;20046;-70
2022/12/04 10:11:20;;;;;;;22.92;13.43;;;;;;;;;;5006792;28;20050;-70
2022/12/04 10:14:11;;;;;;;19.25;12.57;;;;;;;;;;4991286;28;20062;-68
2022/12/04 10:16:50;;;;;;;20.90;12.15;;;;;;;;;;4993158;28;20047;-74
2022/12/04 10:19:53;;;;;;;19.63;11.98;;;;;;;;;;4992530;28;20054;-73
2022/12/04 10:22:20;;;;;;;;;;;;;;;;;;4993377;28;20085;-73
2022/12/04 10:24:48;;;;;;;22.73;12.60;;;;;;;;;;4992775;28;19932;-71
2022/12/04 10:27:20;;;;;;;23.08;12.95;;;;;;;;;;4975189;28;20149;-72
2022/12/04 10:29:49;;;;;;;21.27;12.65;;;;;;;;;;4992960;28;20105;-74
2022/12/04 10:32:33;;;;;;;23.52;12.57;;;;;;;;;;4975144;28;20057;-74
2022/12/04 10:35:21;;;;;;;20.83;12.10;;;;;;;;;;5006782;28;20120;-74
2022/12/04 10:38:11;;;;;;;18.75;11.63;;;;;;;;;;4992014;28;20050;-70
2022/12/04 10:40:47;;;;;;;21.35;12.90;;;;;;;;;;4987315;28;20054;-74
2022/12/04 10:43:26;;;;;;;19.55;12.43;;;;;;;;;;4991882;28;20050;-73
2022/12/04 10:45:52;;;;;;;19.58;12.13;;;;;;;;;;4992149;28;20062;-73
2022/12/04 10:48:25;;;;;;;18.95;11.30;;;;;;;;;;4988373;28;20054;-69
2022/12/04 10:50:52;;;;;;;22.08;13.65;;;;;;;;;;5007143;28;20054;-72
2022/12/04 10:53:20;;;;;;;21.48;12.45;;;;;;;;;;4990203;28;20050;-74
2022/12/04 10:55:46;;;;;;;20.63;12.48;;;;;;;;;;4990691;28;20472;-72
2022/12/04 10:58:17;;;;;;;22.38;12.85;;;;;;;;;;4994822;28;20053;-71
2022/12/04 11:00:44;;;;;;;25.17;13.55;;;;;;;;;;4994869;28;20050;-72
2022/12/04 11:03:26;;;;;;;20.92;13.10;;;;;;;;;;4979209;28;20054;-71
2022/12/04 11:05:55;;;;;;;23.30;12.73;;;;;;;;;;5006234;28;20042;-71
2022/12/04 11:08:27;;;;;;;23.25;13.90;;;;;;;;;;5023181;28;20054;-73
2022/12/04 11:11:10;;;;;;;21.77;12.73;;;;;;;;;;4996746;28;20078;-72
2022/12/04 11:13:37;;;;;;;25.90;12.93;;;;;;;;;;4994865;28;20050;-69
2022/12/04 11:16:05;;;;;;;21.33;12.10;;;;;;;;;;4991168;28;20088;-68
2022/12/04 11:18:34;;;;;;;24.13;14.05;;;;;;;;;;4990816;28;20536;-69
2022/12/04 11:21:03;;;;;;;22.88;12.80;;;;;;;;;;4974490;28;20058;-65
2022/12/04 11:23:40;;;;;;;20.77;12.65;;;;;;;;;;4990651;28;20046;-69
2022/12/04 11:26:06;;;;;;;17.25;11.40;;;;;;;;;;4988209;28;20047;-68
2022/12/04 11:28:33;;;;;;;20.88;12.57;;;;;;;;;;4990660;28;20492;-68
2022/12/04 11:31:08;;;;;;;20.83;11.07;;;;;;;;;;4996333;28;20073;-68
2022/12/04 11:33:47;;;;;;;21.73;12.57;;;;;;;;;;4992536;28;20471;-68
2022/12/04 11:36:27;;;;;;;21.48;12.07;;;;;;;;;;4990187;28;20510;-68
2022/12/04 11:39:06;;;;;;;21.50;12.07;;;;;;;;;;4990076;28;20543;-68
2022/12/04 11:41:33;;;;;;;22.98;13.18;;;;;;;;;;4987373;28;20571;-66
2022/12/04 11:43:59;;;;;;;23.25;12.63;;;;;;;;;;5005860;28;20050;-68
2022/12/04 11:46:29;;;;;;;21.52;11.70;;;;;;;;;;4990377;28;20046;-69
2022/12/04 11:48:56;;;;;;;20.73;12.00;;;;;;;;;;4991544;28;20117;-68
2022/12/04 11:51:34;;;;;;;25.15;14.07;;;;;;;;;;4990037;28;20444;-68
2022/12/04 11:54:06;;;;;;;23.73;13.68;;;;;;;;;;4991123;28;20058;-69
2022/12/04 11:56:41;;;;;;;27.25;13.20;;;;;;;;;;4991274;28;20120;-69
2022/12/04 11:59:33;;;;;;;20.55;11.85;;;;;;;;;;4990160;28;20054;-70
2022/12/04 12:02:12;;;;;;;21.63;13.07;;;;;;;;;;4990114;28;20053;-70
2022/12/04 12:05:07;;;;;;;21.90;12.07;;;;;;;;;;4989981;28;20058;-69
2022/12/04 12:07:52;;;;;;;24.13;13.40;;;;;;;;;;4988340;28;20050;-67
2022/12/04 12:10:30;;;;;;;22.63;12.93;;;;;;;;;;4988229;28;20046;-68
2022/12/04 12:13:25;;;;;;;22.40;12.52;;;;;;;;;;4988815;28;20050;-69
2022/12/04 12:16:04;;;;;;;25.13;13.32;;;;;;;;;;4992989;28;20093;-69
2022/12/04 12:18:31;;;;;;;20.52;12.35;;;;;;;;;;4982919;28;20065;-68
2022/12/04 12:21:15;;;;;;;19.83;12.50;;;;;;;;;;4991013;28;20058;-67
2022/12/04 12:24:03;;;;;;;23.23;14.38;;;;;;;;;;5008033;28;20058;-68
2022/12/04 12:26:39;;;;;;;23.23;14.55;;;;;;;;;;4992144;28;20053;-66
2022/12/04 12:29:15;;;;;;;23.90;13.90;;;;;;;;;;4992637;28;20046;-69
2022/12/04 12:31:59;;;;;;;24.05;13.93;;;;;;;;;;4990286;28;20062;-66
2022/12/04 12:34:34;;;;;;;20.85;13.00;;;;;;;;;;5007534;28;20121;-69
2022/12/04 12:37:11;;;;;;;22.88;13.25;;;;;;;;;;4991020;28;20096;-68
2022/12/04 12:39:40;;;;;;;24.30;15.25;;;;;;;;;;5003725;28;20046;-69
2022/12/04 12:42:14;;;;;;;21.67;13.13;;;;;;;;;;4991033;28;20104;-68
2022/12/04 12:44:53;;;;;;;20.08;13.05;;;;;;;;;;4991102;28;20046;-69
2022/12/04 12:47:22;;;;;;;19.55;12.63;;;;;;;;;;4986662;28;20061;-68
2022/12/04 12:50:19;;;;;;;23.30;13.10;;;;;;;;;;4991505;28;20058;-68
2022/12/04 12:53:00;;;;;;;20.52;12.48;;;;;;;;;;4988962;28;20054;-68
2022/12/04 12:55:32;;;;;;;23.83;14.75;;;;;;;;;;4990131;28;20112;-68
2022/12/04 12:58:08;;;;;;;25.23;13.68;;;;;;;;;;4987812;28;20046;-66
2022/12/04 13:00:48;;;;;;;21.15;13.00;;;;;;;;;;4988465;28;20050;-68
2022/12/04 13:03:42;;;;;;;21.55;12.63;;;;;;;;;;4990031;28;20129;-67
2022/12/04 13:06:11;;;;;;;;;;;;;;;;;;4994641;28;20094;-68
2022/12/04 13:08:47;;;;;;;24.45;14.13;;;;;;;;;;5001718;28;19973;-67
2022/12/04 13:11:20;;;;;;;22.77;13.23;;;;;;;;;;4993136;28;20065;-69
2022/12/04 13:13:59;;;;;;;21.55;12.27;;;;;;;;;;4990058;28;20100;-67
2022/12/04 13:16:30;;;;;;;25.60;13.75;;;;;;;;;;4990483;28;20485;-68
2022/12/04 13:19:07;;;;;;;25.80;13.10;;;;;;;;;;4954064;28;20126;-68
2022/12/04 13:22:07;;;;;;;22.85;13.02;;;;;;;;;;4974265;28;20494;-68
2022/12/04 13:24:36;;;;;;;24.38;13.60;;;;;;;;;;4969749;28;20457;-68
2022/12/04 13:27:28;;;;;;;22.88;11.88;;;;;;;;;;4971728;28;20078;-68
2022/12/04 13:30:03;;;;;;;22.92;13.05;;;;;;;;;;4971352;28;20113;-69
2022/12/04 13:33:00;;;;;;;22.88;12.25;;;;;;;;;;4971052;28;20046;-69
2022/12/04 13:36:00;;;;;;;23.08;13.25;;;;;;;;;;4972276;28;20050;-68
2022/12/04 13:38:53;;;;;;;26.55;13.27;;;;;;;;;;4971894;28;20097;-69
2022/12/04 13:41:24;;;;;;;26.13;13.52;;;;;;;;;;4970272;28;20046;-68
2022/12/04 13:43:51;;;;;;;24.58;13.20;;;;;;;;;;4973343;28;20051;-69
2022/12/04 13:46:37;;;;;;;25.98;13.35;;;;;;;;;;4970294;28;20050;-68
2022/12/04 13:49:16;;;;;;;26.88;14.98;;;;;;;;;;4970996;28;20050;-69
2022/12/04 13:51:46;;;;;;;28.05;14.77;;;;;;;;;;4971162;28;20464;-69
2022/12/04 13:54:13;;;;;;;25.63;14.45;;;;;;;;;;4954934;28;20462;-70
2022/12/04 13:56:42;;;;;;;31.15;14.85;;;;;;;;;;4971418;28;20054;-68
2022/12/04 13:59:23;;;;;;;29.88;14.50;;;;;;;;;;4973160;28;20481;-68
2022/12/04 14:01:52;;;;;;;28.42;14.32;;;;;;;;;;4972120;28;20077;-67
2022/12/04 14:04:45;;;;;;;25.75;13.40;;;;;;;;;;4953147;28;20054;-68
2022/12/04 14:07:26;;;;;;;25.70;13.77;;;;;;;;;;4970283;28;20055;-70
2022/12/04 14:09:53;;;;;;;27.40;14.85;;;;;;;;;;4970137;28;20070;-68
2022/12/04 14:12:42;;;;;;;30.38;14.48;;;;;;;;;;4954722;28;20055;-69
2022/12/04 14:15:20;;;;;;;29.05;16.30;;;;;;;;;;4956715;28;20050;-69
2022/12/04 14:17:59;;;;;;;30.30;16.08;;;;;;;;;;4969335;28;20058;-69
2022/12/04 14:20:31;;;;;;;29.50;15.82;;;;;;;;;;4970275;28;20449;-69
2022/12/04 14:23:14;;;;;;;27.23;14.52;;;;;;;;;;4971410;28;20102;-68
2022/12/04 14:25:40;;;;;;;28.30;14.20;;;;;;;;;;4971116;28;20051;-69
2022/12/04 14:28:30;;;;;;;26.95;15.32;;;;;;;;;;4971732;28;20054;-66
2022/12/04 14:31:03;;;;;;;24.52;13.80;;;;;;;;;;4967985;28;20055;-68
2022/12/04 14:33:31;;;;;;;29.80;14.70;;;;;;;;;;4971061;28;20050;-68
2022/12/04 14:36:23;;;;;;;25.42;14.30;;;;;;;;;;4969554;28;20046;-69
2022/12/04 14:38:57;;;;;;;24.73;13.95;;;;;;;;;;4968909;28;20106;-67
2022/12/04 14:41:25;;;;;;;27.73;13.50;;;;;;;;;;4969637;28;20055;-69
2022/12/04 14:43:52;;;;;;;26.95;14.68;;;;;;;;;;4968115;28;20047;-69
2022/12/04 14:46:25;;;;;;;25.73;13.63;;;;;;;;;;4970283;28;20059;-70
2022/12/04 14:48:58;;;;;;;29.75;15.52;;;;;;;;;;4970747;28;20086;-68
2022/12/04 14:51:52;;;;;;;27.50;14.82;;;;;;;;;;4970633;28;20106;-69
2022/12/04 14:54:28;;;;;;;29.90;15.13;;;;;;;;;;4968573;28;20058;-69
2022/12/04 14:56:55;;;;;;;27.38;14.45;;;;;;;;;;4966585;28;20441;-68
2022/12/04 14:59:24;;;;;;;27.55;14.75;;;;;;;;;;4970641;28;20055;-69
2022/12/04 15:01:51;;;;;;;25.48;13.68;;;;;;;;;;4968792;28;20078;-69